Belchertown, Massachusetts
Current Conditions -  °F | °C
As of 11:58 AM on Friday 24 Oct 2014 (Local Time) from KCEF Reporting Station
Overcast Overcast  
Wind Chill: 51°   Ceiling: 2600
Heat Index: 51°   Visibility: 10mi
Dew Point: 42°   Wind: 14mph
Humidity: 71%   Direction: 10°N
Pressure: 29.76"   Gusts: 17mph
Location:  42.28°N, 72.4°W
Report Text: KCEF 241558Z AUTO 01012G15KT 10SM OVC026 11/06 A2976 RMK AO2 SLP084 T01080058
Loading
Personal Weather Stations






























Interactive Weather Map
Tropical Storm Tracking
New forecast layout! Learn more

10-Day Weather Forecast

Advertisements
Track Severe Weather on mobile